Pagrindinis puslapis
METAR-TAF:

METAR-TAF

Oro uostai :

Ziginšoras, Senegalas

platuma: 12-33N, ilguma: 016-16W, Aukštis: 26 m

Dabartinis oras

Ataskaita buvo paskelbta 1 valandą ir 15 minutes, ne 14:00 UTC
Vėjas 2 kt nuo kintamojo kryptimis
Temperatūra 31°C
Drėgmė 71%
Slėgis 1014 hPa
Matomumas 10 km arba daugiau
Mažai debesys ne aukštis 1500 ft

METAR: GOGG 211400Z VRB02KT 9999 FEW015 31/25 Q1014

Laikas: 15:15 (15:15 UTC)


TAF: trūkstamas

Orai ataskaitas ir orų prognozės (METAR, TAF).

turimą stotys yra geltonos ir raudonos taškus žemėlapyje.

Perkelti pele per norėdami pamatyti stoties vardą.

Tada spustelėkite, norėdami matyti oro stebėjimo ir prognozės.

Norėdami pakeisti žemėlapį: spustelėkite ant žalios mygtukų su juodo kryžiaus žemyn,; žalią mygtuką su brūkšneliu, jei norite nutolinti; arba žalių rodyklių gretimoms žemėlapius.


METAR-TAF: